createdAt,value
2018-07-10T06:56:48.658Z,2.40
2018-07-10T06:59:17.299Z,2.80
2018-07-10T07:01:46.881Z,2.62
2018-07-10T07:04:15.476Z,2.42
2018-07-10T07:06:44.030Z,2.33
2018-07-10T07:09:13.531Z,2.05
2018-07-10T07:11:44.146Z,2.05
2018-07-10T07:14:14.423Z,2.30
2018-07-10T07:16:43.080Z,2.33
2018-07-10T07:19:12.668Z,2.20
2018-07-10T07:21:41.379Z,2.60
2018-07-10T07:24:09.966Z,2.50
2018-07-10T07:26:39.084Z,2.67
2018-07-10T07:29:08.494Z,2.65
2018-07-10T07:31:37.169Z,2.15
2018-07-10T07:34:07.552Z,2.67
2018-07-10T07:36:36.088Z,2.52
2018-07-10T07:39:05.563Z,2.67
2018-07-10T07:41:34.471Z,2.60
2018-07-10T07:44:04.163Z,2.60
2018-07-10T07:46:33.195Z,2.83
2018-07-10T07:49:03.566Z,2.45
2018-07-10T07:51:34.443Z,2.95
2018-07-10T07:54:06.631Z,3.10
2018-07-10T07:56:36.505Z,2.62
2018-07-10T07:59:05.282Z,2.60
2018-07-10T08:01:35.016Z,3.27
2018-07-10T08:04:05.712Z,2.90
2018-07-10T08:06:34.227Z,3.15
2018-07-10T08:09:05.818Z,2.92
2018-07-10T08:11:35.566Z,2.67
2018-07-10T08:14:05.229Z,3.25
2018-07-10T08:16:35.960Z,3.52
2018-07-10T08:19:06.068Z,2.77
2018-07-10T08:21:35.068Z,2.75
2018-07-10T08:24:03.755Z,2.65
2018-07-10T08:26:33.011Z,2.70
2018-07-10T08:29:02.682Z,2.98
2018-07-10T08:31:32.526Z,3.30
2018-07-10T08:34:01.282Z,3.15
2018-07-10T08:36:31.055Z,2.98
2018-07-10T08:39:00.662Z,3.98
2018-07-10T08:41:38.198Z,3.67
2018-07-10T08:44:07.680Z,2.98
2018-07-10T08:46:37.686Z,2.77
2018-07-10T08:49:08.545Z,3.33
2018-07-10T08:51:38.491Z,3.35
2018-07-10T08:54:07.865Z,3.72
2018-07-10T08:56:38.302Z,3.90
2018-07-10T08:59:07.958Z,3.60
2018-07-10T09:01:38.402Z,3.55
2018-07-10T09:04:07.591Z,3.95
2018-07-10T09:06:36.874Z,4.00
2018-07-10T09:09:06.020Z,4.20
2018-07-10T09:11:34.712Z,3.85
2018-07-10T09:14:04.055Z,3.30
2018-07-10T09:16:33.700Z,3.33
2018-07-10T09:19:02.900Z,3.37
2018-07-10T09:21:32.426Z,3.20
2018-07-10T09:24:01.112Z,3.35
2018-07-10T09:26:30.506Z,3.58
2018-07-10T09:29:00.041Z,3.22
2018-07-10T09:31:28.738Z,3.58
2018-07-10T09:33:57.367Z,2.92
2018-07-10T09:36:26.003Z,3.65
2018-07-10T09:38:56.405Z,3.60
2018-07-10T09:41:24.990Z,3.40
2018-07-10T09:43:54.690Z,3.52
2018-07-10T09:46:24.726Z,3.37
2018-07-10T09:48:54.928Z,4.00
2018-07-10T09:51:25.083Z,3.75
2018-07-10T09:53:55.451Z,4.35
2018-07-10T09:56:24.707Z,4.40
2018-07-10T09:58:54.983Z,4.60
2018-07-10T10:01:27.816Z,4.25
2018-07-10T10:03:57.755Z,4.42
2018-07-10T10:06:26.450Z,4.75
2018-07-10T10:08:55.825Z,4.67
2018-07-10T10:11:24.518Z,5.05
2018-07-10T10:13:54.101Z,4.60
2018-07-10T10:16:23.687Z,4.35
2018-07-10T10:18:57.651Z,4.35
2018-07-10T10:21:27.283Z,4.60
2018-07-10T10:23:58.072Z,4.62
2018-07-10T10:26:28.496Z,4.67
2018-07-10T10:28:57.418Z,4.70
2018-07-10T10:31:28.132Z,4.28
2018-07-10T10:33:57.103Z,4.58
2018-07-10T10:36:26.345Z,4.47
2018-07-10T10:38:57.074Z,4.75
2018-07-10T10:41:27.511Z,4.50
2018-07-10T10:43:59.235Z,4.87
2018-07-10T10:46:27.962Z,4.53
2018-07-10T10:48:56.556Z,4.95
2018-07-10T10:51:26.494Z,4.90
2018-07-10T10:53:56.626Z,4.90
2018-07-10T10:56:25.655Z,5.20
2018-07-10T10:58:54.422Z,4.97
2018-07-10T11:01:23.745Z,4.47
2018-07-10T11:03:54.400Z,4.42
2018-07-10T11:06:24.471Z,4.50
2018-07-10T11:08:53.936Z,5.03
2018-07-10T11:11:22.703Z,4.78
2018-07-10T11:13:52.772Z,4.65
2018-07-10T11:16:22.342Z,4.75
2018-07-10T11:18:57.726Z,4.75
2018-07-10T11:22:30.893Z,4.12
2018-07-10T11:25:05.912Z,4.00
2018-07-10T11:27:47.126Z,4.62
2018-07-10T11:30:18.079Z,4.55
2018-07-10T11:32:48.188Z,4.40
2018-07-10T11:35:17.425Z,4.60
2018-07-10T11:37:49.604Z,4.97
2018-07-10T11:40:18.401Z,4.58
2018-07-10T11:42:49.658Z,5.40
2018-07-10T11:45:18.972Z,5.17
2018-07-10T11:47:49.098Z,5.03
2018-07-10T11:50:18.838Z,5.28
2018-07-10T11:52:50.779Z,5.42
2018-07-10T11:55:19.386Z,5.60
2018-07-10T11:57:49.479Z,6.10
2018-07-10T12:00:18.739Z,6.10
2018-07-10T12:02:48.077Z,5.60
2018-07-10T12:05:21.954Z,5.83
2018-07-10T12:07:55.416Z,5.83
2018-07-10T12:10:27.786Z,5.97
2018-07-10T12:12:58.775Z,6.08
2018-07-10T12:15:30.506Z,5.72
2018-07-10T12:18:00.187Z,6.28
2018-07-10T12:20:40.401Z,5.50
2018-07-10T12:23:10.839Z,5.58
2018-07-10T12:25:41.205Z,5.42
2018-07-10T12:28:17.305Z,5.53
2018-07-10T12:30:46.958Z,5.20
2018-07-10T12:33:15.545Z,5.33
2018-07-10T12:35:44.682Z,5.37
2018-07-10T12:38:13.806Z,4.85
2018-07-10T12:40:42.356Z,5.05
2018-07-10T12:43:11.374Z,4.85
2018-07-10T12:45:39.904Z,4.90
2018-07-10T12:48:08.442Z,4.72
2018-07-10T12:50:37.008Z,5.20
2018-07-10T12:53:06.356Z,5.40
2018-07-10T12:55:36.079Z,6.00
2018-07-10T12:58:04.933Z,5.35
2018-07-10T13:00:37.266Z,5.55
2018-07-10T13:03:07.695Z,5.40
2018-07-10T13:06:09.308Z,5.28
2018-07-10T13:08:37.820Z,5.70
2018-07-10T13:11:06.456Z,6.05
2018-07-10T13:13:35.162Z,5.50
2018-07-10T13:16:03.666Z,5.80
2018-07-10T13:18:34.918Z,4.95
2018-07-10T13:21:03.528Z,4.67
2018-07-10T13:23:32.028Z,5.45
2018-07-10T13:26:00.579Z,5.65
2018-07-10T13:28:31.703Z,6.33
2018-07-10T13:31:03.376Z,6.67
2018-07-10T13:33:35.112Z,6.97
2018-07-10T13:36:05.301Z,7.28
2018-07-10T13:38:34.625Z,7.85
2018-07-10T13:41:03.912Z,7.33
2018-07-10T13:43:32.583Z,10.00
2018-07-10T13:46:01.683Z,8.03
2018-07-10T13:48:30.489Z,8.15
2018-07-10T13:50:58.899Z,8.48
2018-07-10T13:53:28.125Z,7.33
2018-07-10T13:55:57.536Z,7.08
2018-07-10T13:58:31.417Z,7.65
2018-07-10T14:01:03.012Z,7.55
2018-07-10T14:03:32.696Z,7.05
2018-07-10T14:06:02.741Z,7.60
2018-07-10T14:08:35.173Z,8.35
2018-07-10T14:11:05.768Z,7.72
2018-07-10T14:13:50.282Z,8.10
2018-07-10T14:16:22.276Z,8.38
2018-07-10T14:18:54.366Z,6.65
2018-07-10T14:21:24.917Z,7.47
2018-07-10T14:23:57.396Z,6.08
2018-07-10T14:26:27.361Z,6.70
2018-07-10T14:29:00.241Z,6.58
2018-07-10T14:31:32.515Z,6.42
2018-07-10T14:34:04.102Z,6.20
2018-07-10T14:36:33.274Z,5.60
2018-07-10T14:39:05.130Z,5.58
2018-07-10T14:41:34.324Z,5.28
2018-07-10T14:44:06.692Z,5.28
2018-07-10T14:46:35.382Z,4.70
2018-07-10T14:49:05.585Z,4.47
2018-07-10T14:51:43.430Z,4.65
2018-07-10T14:54:14.522Z,4.60
2018-07-10T14:56:44.107Z,4.40
2018-07-10T14:59:12.756Z,4.95
2018-07-10T15:01:41.961Z,5.70
2018-07-10T15:04:10.876Z,6.60
2018-07-10T15:06:39.586Z,5.90
2018-07-10T15:09:09.670Z,4.83
2018-07-10T15:11:38.911Z,5.33
2018-07-10T15:14:10.673Z,5.20
2018-07-10T15:16:45.654Z,5.58
2018-07-10T15:19:16.777Z,5.58
2018-07-10T15:21:47.314Z,4.60
2018-07-10T15:24:16.023Z,5.28
2018-07-10T15:27:10.154Z,5.12
2018-07-10T15:29:41.435Z,5.00
2018-07-10T15:32:11.173Z,4.70
2018-07-10T15:34:42.831Z,4.50
2018-07-10T15:37:11.410Z,4.42
2018-07-10T15:39:41.373Z,5.30
2018-07-10T15:42:10.760Z,4.62
2018-07-10T15:44:39.566Z,5.40
2018-07-10T15:47:11.448Z,4.50
2018-07-10T15:49:41.433Z,4.15
2018-07-10T15:52:12.147Z,3.90
2018-07-10T15:54:40.816Z,3.83
2018-07-10T15:57:09.731Z,4.03
2018-07-10T15:59:38.472Z,3.95
2018-07-10T16:02:09.240Z,4.10
2018-07-10T16:04:40.813Z,3.90
2018-07-10T16:07:10.263Z,3.75
2018-07-10T16:09:39.069Z,3.60
2018-07-10T16:12:08.698Z,3.85
2018-07-10T16:14:39.008Z,4.20
2018-07-10T16:17:16.308Z,4.05
2018-07-10T16:19:46.234Z,3.75
2018-07-10T16:25:07.317Z,3.77
2018-07-10T16:27:42.611Z,3.52
2018-07-10T16:30:12.935Z,4.00
2018-07-10T16:32:43.113Z,3.80
2018-07-10T16:35:13.309Z,3.35
2018-07-10T16:37:45.536Z,3.45
2018-07-10T16:40:16.852Z,3.42
2018-07-10T16:42:48.089Z,3.02
2018-07-10T16:45:29.999Z,3.00
2018-07-10T16:50:12.108Z,2.50
2018-07-10T16:52:51.494Z,1.98
2018-07-10T16:55:24.781Z,2.35
2018-07-10T16:57:53.929Z,2.10
2018-07-10T17:00:23.705Z,2.00
2018-07-10T17:02:54.449Z,1.98
2018-07-10T17:05:23.743Z,2.00
2018-07-10T17:07:54.178Z,1.90
2018-07-10T17:10:22.997Z,2.12
2018-07-10T17:12:51.229Z,2.00
2018-07-10T17:15:19.895Z,1.80
2018-07-10T17:17:48.432Z,1.90
2018-07-10T17:20:18.368Z,1.98
2018-07-10T17:22:47.564Z,2.10
2018-07-10T17:25:16.962Z,1.70
2018-07-10T17:27:46.547Z,2.30
2018-07-10T17:30:16.141Z,1.80
2018-07-10T17:32:44.720Z,1.95
2018-07-10T17:35:13.291Z,2.35
2018-07-10T17:37:47.100Z,2.05
2018-07-10T17:40:16.302Z,2.10
2018-07-10T17:42:46.126Z,2.35
2018-07-10T17:45:21.035Z,2.15
2018-07-10T17:47:50.027Z,2.20
2018-07-10T17:50:18.692Z,2.50
2018-07-10T17:52:47.272Z,2.30
2018-07-10T17:55:15.991Z,2.52
2018-07-10T17:57:44.530Z,2.45
2018-07-10T18:00:13.807Z,2.10
2018-07-10T18:02:42.986Z,1.50
2018-07-10T18:05:11.555Z,1.47
2018-07-10T18:07:40.240Z,1.57
2018-07-10T18:10:09.483Z,1.10
2018-07-10T18:12:38.158Z,1.22
2018-07-10T18:15:06.894Z,1.30
2018-07-10T18:17:35.515Z,1.20
2018-07-10T18:20:04.555Z,1.00
2018-07-10T18:22:33.763Z,1.25
2018-07-10T18:25:02.273Z,0.90
2018-07-10T18:27:30.870Z,1.27
2018-07-10T18:29:59.531Z,1.22
2018-07-10T18:32:28.152Z,1.10
2018-07-10T18:34:58.388Z,1.00
2018-07-10T18:37:26.987Z,1.10
2018-07-10T18:39:56.073Z,1.20
2018-07-10T18:42:24.757Z,1.00
2018-07-10T18:44:53.670Z,0.90
2018-07-10T18:47:22.646Z,0.95
2018-07-10T18:49:53.150Z,0.90
2018-07-10T18:52:25.887Z,0.80
2018-07-10T18:54:54.978Z,0.70
2018-07-10T18:58:32.883Z,0.80
2018-07-10T19:02:26.319Z,0.70
2018-07-10T19:05:02.180Z,0.60
2018-07-10T19:07:31.520Z,0.75
2018-07-10T19:10:01.295Z,0.60
2018-07-10T19:12:29.866Z,0.72
2018-07-10T19:15:00.080Z,0.70
2018-07-10T19:17:30.798Z,0.80
2018-07-10T19:20:08.751Z,0.70
2018-07-10T19:23:00.333Z,0.70
2018-07-10T19:25:28.954Z,1.05
2018-07-10T19:27:59.756Z,1.00
2018-07-10T19:30:52.677Z,0.90
2018-07-10T19:33:22.847Z,0.68
2018-07-10T19:35:52.471Z,1.00
2018-07-10T19:38:21.125Z,0.72
2018-07-10T19:40:49.760Z,0.90
2018-07-10T19:43:19.535Z,0.68
2018-07-10T19:45:48.459Z,0.72
2018-07-10T19:48:17.766Z,0.80
2018-07-10T19:50:46.884Z,1.10
2018-07-10T19:53:16.118Z,0.80
2018-07-10T19:55:45.851Z,0.90
2018-07-10T19:58:25.404Z,0.80
2018-07-10T20:00:58.225Z,0.88
2018-07-10T20:03:36.887Z,0.80
2018-07-10T20:06:10.756Z,0.90
2018-07-10T20:08:44.824Z,1.10
2018-07-10T20:11:14.415Z,1.10
2018-07-10T20:13:48.268Z,0.80
2018-07-10T20:16:31.341Z,1.25
2018-07-10T20:19:08.741Z,1.00
2018-07-10T20:22:47.933Z,1.25
2018-07-10T20:25:55.866Z,0.98
2018-07-10T20:29:06.197Z,1.40
2018-07-10T20:31:43.444Z,1.15
2018-07-10T20:34:28.678Z,1.42
2018-07-10T20:36:57.245Z,1.55
2018-07-10T20:39:34.557Z,1.30
2018-07-10T20:42:03.316Z,1.42
2018-07-10T20:44:39.723Z,1.50
2018-07-10T20:47:09.658Z,1.40
2018-07-10T20:49:52.592Z,1.30
2018-07-10T20:52:27.837Z,1.70
2018-07-10T20:55:03.959Z,1.55
2018-07-10T20:58:10.152Z,1.57
2018-07-10T21:00:40.988Z,1.50
2018-07-10T21:03:19.794Z,1.92
2018-07-10T21:05:50.137Z,1.47
2018-07-10T21:08:38.641Z,1.95
2018-07-10T21:11:14.808Z,1.60
2018-07-10T21:13:53.487Z,2.02
2018-07-10T21:16:33.014Z,2.00
2018-07-10T21:20:14.994Z,1.90
2018-07-10T21:22:57.593Z,2.20
2018-07-10T21:26:32.192Z,2.45
2018-07-10T21:29:10.012Z,2.27
2018-07-10T21:31:48.252Z,2.70
2018-07-10T21:34:22.785Z,2.30
2018-07-10T21:36:58.532Z,2.50
2018-07-10T21:39:35.444Z,2.60
2018-07-10T21:43:10.268Z,2.42
2018-07-10T21:45:50.017Z,2.55
2018-07-10T21:48:31.432Z,2.60
2018-07-10T21:51:00.038Z,2.40
2018-07-10T21:53:28.627Z,2.65
2018-07-10T21:55:57.433Z,2.92
2018-07-10T21:58:25.993Z,3.08
2018-07-10T22:02:04.411Z,3.17
2018-07-10T22:04:35.268Z,2.62
2018-07-10T22:07:10.818Z,2.77
2018-07-10T22:09:40.825Z,2.80
2018-07-10T22:12:11.897Z,2.87
2018-07-10T22:14:41.587Z,3.42
2018-07-10T22:17:21.772Z,3.15
2018-07-10T22:19:51.785Z,3.50
2018-07-10T22:22:21.988Z,3.10
2018-07-10T22:24:52.710Z,3.67
2018-07-10T22:27:23.801Z,3.75
2018-07-10T22:30:08.052Z,4.00
2018-07-10T22:32:45.876Z,4.10
2018-07-10T22:35:17.253Z,4.55
2018-07-10T22:37:48.135Z,4.50
2018-07-10T22:40:18.854Z,4.90
2018-07-10T22:42:50.831Z,4.70
2018-07-10T22:45:21.896Z,4.00
2018-07-10T22:48:01.138Z,4.72
2018-07-10T22:50:41.936Z,4.60
2018-07-10T22:53:13.557Z,4.62
2018-07-10T22:55:44.675Z,4.53
2018-07-10T22:58:13.334Z,5.05
2018-07-10T23:00:41.973Z,5.20
2018-07-10T23:03:21.716Z,4.83
2018-07-10T23:05:52.751Z,5.25
2018-07-10T23:08:32.187Z,5.95
2018-07-10T23:11:02.757Z,5.60
2018-07-10T23:13:32.379Z,5.33
2018-07-10T23:16:00.919Z,6.30
2018-07-10T23:18:29.495Z,6.17
2018-07-10T23:20:58.972Z,5.95
2018-07-10T23:23:27.893Z,5.72
